Urb Pura Brisa, Puerto Rico
Current Conditions -  °F | °C
As of 11:50 AM on Monday 22 Dec 2014 (Local Time) from TJBQ Reporting Station
Scattered Clouds Scattered Clouds  
Wind Chill: 82°   Ceiling: Unl
Heat Index: 86°   Visibility: 10mi
Dew Point: 70°   Wind: 12mph
Humidity: 66%   Direction: 50°NE
Pressure: 30.07"   Gusts: 18mph
Location:  18.2038°N, 67.1453°W
Report Text: TJBQ 221550Z 05010G16KT 10SM SCT025 28/21 A3007 RMK RWY 8 ATIS V
Loading
Personal Weather Stations






























Interactive Weather Map New forecast layout! Learn more

10-Day Weather Forecast

Advertisements
Track Severe Weather on mobile